ANA748 RJNW-RJTT
Flight info
| Callsign | ANA748 |
|---|---|
| Flight time | 0h 48m |
| Altitude | 29000 |
| Route | HISUI Y31 GUSGI/N0449F280 Y10 GODIN |
| Aircraft | A321/M-SDE3FGHIRWY/LB1 |
Departure
| Time | 2026-05-04 11:28 |
|---|---|
| Airport | Noto Satoyama Airport (RJNW) |
Arrival
| Time | 2026-05-04 12:17 |
|---|---|
| Airport | Tokyo Haneda International Airport (RJTT) |
| Time | Latitude | Longitude | Altitude | Speed | Heading |
|---|---|---|---|---|---|
| 2026-05-04 10:41 | 37.29474 | 136.95769 | 726 ft | 0 kts | 334° |
| 2026-05-04 11:19 | 37.29464 | 136.95775 | 724 ft | 4 kts | 331° |
| 2026-05-04 11:20 | 37.29443 | 136.95794 | 724 ft | 4 kts | 296° |
| 2026-05-04 11:20 | 37.29442 | 136.95813 | 725 ft | 1 kts | 221° |
| 2026-05-04 11:20 | 37.29446 | 136.95817 | 723 ft | 0 kts | 221° |
| 2026-05-04 11:22 | 37.29442 | 136.95812 | 725 ft | 5 kts | 221° |
| 2026-05-04 11:22 | 37.29397 | 136.95788 | 724 ft | 7 kts | 182° |
| 2026-05-04 11:23 | 37.29356 | 136.95804 | 726 ft | 5 kts | 158° |
| 2026-05-04 11:23 | 37.29326 | 136.95820 | 724 ft | 4 kts | 157° |
| 2026-05-04 11:24 | 37.29269 | 136.95850 | 725 ft | 12 kts | 156° |
| 2026-05-04 11:25 | 37.29240 | 136.95951 | 722 ft | 14 kts | 71° |
| 2026-05-04 11:25 | 37.29285 | 136.96081 | 725 ft | 21 kts | 66° |
| 2026-05-04 11:25 | 37.29344 | 136.96254 | 724 ft | 21 kts | 66° |
| 2026-05-04 11:26 | 37.29456 | 136.96578 | 721 ft | 19 kts | 66° |
| 2026-05-04 11:27 | 37.29674 | 136.97212 | 717 ft | 0 kts | 245° |
| 2026-05-04 11:28 | 37.29637 | 136.97109 | 718 ft | 51 kts | 246° |
| 2026-05-04 11:28 | 37.29383 | 136.96363 | 721 ft | 131 kts | 246° |
| 2026-05-04 11:28 | 37.28956 | 136.95122 | 1109 ft | 161 kts | 248° |
| 2026-05-04 11:28 | 37.28467 | 136.93857 | 2037 ft | 171 kts | 244° |
| 2026-05-04 11:29 | 37.27429 | 136.92808 | 2520 ft | 218 kts | 209° |
| 2026-05-04 11:29 | 37.25818 | 136.92579 | 2873 ft | 255 kts | 176° |
| 2026-05-04 11:29 | 37.24154 | 136.93635 | 3349 ft | 286 kts | 138° |
| 2026-05-04 11:29 | 37.23152 | 136.95784 | 4045 ft | 297 kts | 103° |
| 2026-05-04 11:31 | 37.31190 | 137.10535 | 9013 ft | 324 kts | 64° |
| 2026-05-04 11:33 | 37.38306 | 137.31328 | 11874 ft | 410 kts | 65° |
| 2026-05-04 11:33 | 37.39439 | 137.34636 | 12507 ft | 415 kts | 66° |
| 2026-05-04 11:33 | 37.40590 | 137.37992 | 13073 ft | 420 kts | 66° |
| 2026-05-04 11:34 | 37.41738 | 137.41340 | 13678 ft | 424 kts | 66° |
| 2026-05-04 11:34 | 37.42907 | 137.44766 | 14194 ft | 429 kts | 66° |
| 2026-05-04 11:34 | 37.44089 | 137.48228 | 14682 ft | 434 kts | 66° |
| 2026-05-04 11:34 | 37.45289 | 137.51742 | 15159 ft | 439 kts | 66° |
| 2026-05-04 11:35 | 37.46499 | 137.55293 | 15656 ft | 444 kts | 66° |
| 2026-05-04 11:35 | 37.47718 | 137.58884 | 16110 ft | 449 kts | 67° |
| 2026-05-04 11:35 | 37.48957 | 137.62538 | 16485 ft | 457 kts | 67° |
| 2026-05-04 11:35 | 37.50211 | 137.66239 | 16920 ft | 462 kts | 67° |
| 2026-05-04 11:36 | 37.51477 | 137.69980 | 17361 ft | 467 kts | 67° |
| 2026-05-04 11:36 | 37.52761 | 137.73777 | 17812 ft | 472 kts | 67° |
| 2026-05-04 11:36 | 37.54054 | 137.77608 | 18219 ft | 477 kts | 67° |
| 2026-05-04 11:36 | 37.55357 | 137.81479 | 18555 ft | 482 kts | 67° |
| 2026-05-04 11:37 | 37.56615 | 137.85426 | 18850 ft | 488 kts | 73° |
| 2026-05-04 11:37 | 37.57450 | 137.89584 | 19155 ft | 491 kts | 83° |
| 2026-05-04 11:37 | 37.57776 | 137.93871 | 19469 ft | 491 kts | 94° |
| 2026-05-04 11:37 | 37.57589 | 137.98091 | 19778 ft | 489 kts | 104° |
| 2026-05-04 11:38 | 37.56904 | 138.02260 | 20098 ft | 484 kts | 114° |
| 2026-05-04 11:38 | 37.55870 | 138.06301 | 20363 ft | 486 kts | 118° |
| 2026-05-04 11:38 | 37.54806 | 138.10372 | 20680 ft | 491 kts | 118° |
| 2026-05-04 11:38 | 37.53737 | 138.14471 | 20999 ft | 495 kts | 118° |
| 2026-05-04 11:39 | 37.52661 | 138.18612 | 21323 ft | 499 kts | 118° |
| 2026-05-04 11:39 | 37.51575 | 138.22784 | 21623 ft | 504 kts | 118° |
| 2026-05-04 11:40 | 37.44844 | 138.48416 | 23433 ft | 523 kts | 119° |
| 2026-05-04 11:41 | 37.43693 | 138.52774 | 23682 ft | 526 kts | 120° |
| 2026-05-04 11:41 | 37.42534 | 138.57149 | 23963 ft | 528 kts | 120° |
| 2026-05-04 11:41 | 37.41375 | 138.61531 | 24239 ft | 529 kts | 120° |
| 2026-05-04 11:41 | 37.40212 | 138.65928 | 24557 ft | 530 kts | 120° |
| 2026-05-04 11:42 | 37.39046 | 138.70328 | 24863 ft | 531 kts | 120° |
| 2026-05-04 11:42 | 37.37875 | 138.74730 | 25162 ft | 532 kts | 120° |
| 2026-05-04 11:42 | 37.36697 | 138.79152 | 25456 ft | 534 kts | 120° |
| 2026-05-04 11:42 | 37.35517 | 138.83587 | 25741 ft | 535 kts | 120° |
| 2026-05-04 11:43 | 37.34334 | 138.88047 | 26042 ft | 537 kts | 120° |
| 2026-05-04 11:43 | 37.33157 | 138.92498 | 26357 ft | 537 kts | 120° |
| 2026-05-04 11:43 | 37.31972 | 138.96967 | 26612 ft | 539 kts | 121° |
| 2026-05-04 11:43 | 37.30782 | 139.01429 | 26897 ft | 540 kts | 121° |
| 2026-05-04 11:44 | 37.29581 | 139.05917 | 27156 ft | 542 kts | 121° |
| 2026-05-04 11:44 | 37.28389 | 139.10355 | 27387 ft | 544 kts | 121° |
| 2026-05-04 11:44 | 37.27174 | 139.14867 | 27674 ft | 546 kts | 121° |
| 2026-05-04 11:44 | 37.25942 | 139.19451 | 27966 ft | 545 kts | 121° |
| 2026-05-04 11:45 | 37.24750 | 139.23904 | 28198 ft | 545 kts | 121° |
| 2026-05-04 11:45 | 37.23540 | 139.28430 | 28393 ft | 546 kts | 121° |
| 2026-05-04 11:45 | 37.22325 | 139.32943 | 28692 ft | 546 kts | 121° |
| 2026-05-04 11:46 | 37.19925 | 139.41849 | 28766 ft | 531 kts | 122° |
| 2026-05-04 11:46 | 37.17540 | 139.50599 | 28756 ft | 529 kts | 122° |
| 2026-05-04 11:47 | 37.15166 | 139.59261 | 28757 ft | 529 kts | 122° |
| 2026-05-04 11:47 | 37.12781 | 139.67977 | 28705 ft | 528 kts | 122° |
| 2026-05-04 11:48 | 37.10390 | 139.76690 | 28732 ft | 529 kts | 122° |
| 2026-05-04 11:48 | 37.07993 | 139.85403 | 28683 ft | 528 kts | 122° |
| 2026-05-04 11:49 | 37.05596 | 139.94089 | 28622 ft | 528 kts | 122° |
| 2026-05-04 11:49 | 37.03191 | 140.02763 | 28658 ft | 527 kts | 122° |
| 2026-05-04 11:50 | 37.00783 | 140.11424 | 28661 ft | 526 kts | 122° |
| 2026-05-04 11:50 | 36.98378 | 140.19981 | 28647 ft | 524 kts | 123° |
| 2026-05-04 11:51 | 36.95442 | 140.28057 | 28639 ft | 486 kts | 141° |
| 2026-05-04 11:51 | 36.93313 | 140.31165 | 28642 ft | 457 kts | 153° |
| 2026-05-04 11:51 | 36.90879 | 140.33538 | 28641 ft | 431 kts | 165° |
| 2026-05-04 11:51 | 36.88283 | 140.35198 | 28637 ft | 409 kts | 174° |
| 2026-05-04 11:52 | 36.85630 | 140.36210 | 28629 ft | 389 kts | 183° |
| 2026-05-04 11:52 | 36.82991 | 140.36635 | 28622 ft | 376 kts | 191° |
| 2026-05-04 11:52 | 36.80422 | 140.36541 | 28622 ft | 364 kts | 198° |
| 2026-05-04 11:53 | 36.75589 | 140.35305 | 28617 ft | 355 kts | 204° |
| 2026-05-04 11:53 | 36.70708 | 140.34093 | 28620 ft | 359 kts | 200° |
| 2026-05-04 11:55 | 36.50887 | 140.30256 | 28571 ft | 361 kts | 200° |
| 2026-05-04 11:56 | 36.45951 | 140.29199 | 28546 ft | 356 kts | 205° |
| 2026-05-04 11:56 | 36.43841 | 140.27852 | 28230 ft | 335 kts | 226° |
| 2026-05-04 11:56 | 36.42338 | 140.25649 | 27971 ft | 336 kts | 236° |
| 2026-05-04 11:56 | 36.41051 | 140.23211 | 27729 ft | 338 kts | 237° |
| 2026-05-04 11:57 | 36.39859 | 140.20713 | 27437 ft | 337 kts | 240° |
| 2026-05-04 11:57 | 36.38851 | 140.18060 | 27027 ft | 342 kts | 246° |
| 2026-05-04 11:57 | 36.38159 | 140.15242 | 26396 ft | 342 kts | 250° |
| 2026-05-04 11:57 | 36.37572 | 140.12385 | 25726 ft | 341 kts | 251° |
| 2026-05-04 11:58 | 36.37199 | 140.10496 | 25287 ft | 340 kts | 251° |
| 2026-05-04 11:58 | 36.36458 | 140.06721 | 24441 ft | 338 kts | 249° |
| 2026-05-04 11:58 | 36.35504 | 140.04098 | 23798 ft | 333 kts | 237° |
| 2026-05-04 11:58 | 36.33973 | 140.01947 | 23130 ft | 336 kts | 224° |
| 2026-05-04 11:59 | 36.31940 | 140.00440 | 22381 ft | 346 kts | 210° |
| 2026-05-04 11:59 | 36.30397 | 139.99879 | 21976 ft | 355 kts | 200° |
| 2026-05-04 11:59 | 36.27903 | 139.99603 | 21320 ft | 360 kts | 197° |
| 2026-05-04 11:59 | 36.25576 | 139.98836 | 20678 ft | 337 kts | 214° |
| 2026-05-04 12:00 | 36.23760 | 139.97130 | 20041 ft | 324 kts | 232° |
| 2026-05-04 12:00 | 36.22667 | 139.94719 | 19420 ft | 324 kts | 250° |
| 2026-05-04 12:00 | 36.22438 | 139.91919 | 18820 ft | 336 kts | 268° |
| 2026-05-04 12:00 | 36.23126 | 139.89080 | 18223 ft | 358 kts | 287° |
| 2026-05-04 12:01 | 36.24698 | 139.86564 | 17595 ft | 384 kts | 306° |
| 2026-05-04 12:01 | 36.27009 | 139.84721 | 16977 ft | 410 kts | 324° |
| 2026-05-04 12:02 | 36.41746 | 139.94540 | 13164 ft | 446 kts | 80° |
| 2026-05-04 12:03 | 36.41986 | 139.98271 | 12496 ft | 424 kts | 101° |
| 2026-05-04 12:03 | 36.41344 | 140.01689 | 11834 ft | 405 kts | 119° |
| 2026-05-04 12:03 | 36.39961 | 140.04654 | 11193 ft | 391 kts | 136° |
| 2026-05-04 12:03 | 36.38035 | 140.06937 | 10655 ft | 375 kts | 152° |
| 2026-05-04 12:04 | 36.35795 | 140.08422 | 10383 ft | 360 kts | 165° |
| 2026-05-04 12:04 | 36.33396 | 140.09148 | 10139 ft | 352 kts | 179° |
| 2026-05-04 12:04 | 36.30977 | 140.09105 | 9906 ft | 345 kts | 192° |
| 2026-05-04 12:04 | 36.28667 | 140.08592 | 9742 ft | 330 kts | 194° |
| 2026-05-04 12:05 | 36.26461 | 140.08086 | 9621 ft | 316 kts | 194° |
| 2026-05-04 12:05 | 36.24344 | 140.07601 | 9497 ft | 303 kts | 194° |
| 2026-05-04 12:05 | 36.22307 | 140.07136 | 9374 ft | 292 kts | 194° |
| 2026-05-04 12:05 | 36.20346 | 140.06689 | 9241 ft | 281 kts | 194° |
| 2026-05-04 12:06 | 36.18439 | 140.06256 | 9105 ft | 277 kts | 194° |
| 2026-05-04 12:06 | 36.16549 | 140.05825 | 8974 ft | 276 kts | 195° |
| 2026-05-04 12:06 | 36.14660 | 140.05392 | 8832 ft | 277 kts | 194° |
| 2026-05-04 12:06 | 36.12758 | 140.04954 | 8694 ft | 278 kts | 194° |
| 2026-05-04 12:07 | 36.10861 | 140.04521 | 8571 ft | 278 kts | 194° |
| 2026-05-04 12:07 | 36.08955 | 140.04087 | 8434 ft | 278 kts | 194° |
| 2026-05-04 12:07 | 36.07056 | 140.03656 | 8315 ft | 278 kts | 194° |
| 2026-05-04 12:07 | 36.05147 | 140.03222 | 8192 ft | 278 kts | 194° |
| 2026-05-04 12:08 | 36.03236 | 140.02792 | 8055 ft | 279 kts | 194° |
| 2026-05-04 12:08 | 36.01331 | 140.02363 | 7931 ft | 279 kts | 195° |
| 2026-05-04 12:08 | 35.99421 | 140.01933 | 7804 ft | 279 kts | 195° |
| 2026-05-04 12:08 | 35.97537 | 140.01509 | 7624 ft | 280 kts | 195° |
| 2026-05-04 12:09 | 35.95607 | 140.01070 | 7118 ft | 284 kts | 195° |
| 2026-05-04 12:09 | 35.93651 | 140.00623 | 6579 ft | 288 kts | 195° |
| 2026-05-04 12:09 | 35.91654 | 140.00168 | 6062 ft | 294 kts | 195° |
| 2026-05-04 12:09 | 35.89660 | 139.99718 | 5744 ft | 289 kts | 194° |
| 2026-05-04 12:10 | 35.87689 | 139.99273 | 5413 ft | 285 kts | 194° |
| 2026-05-04 12:10 | 35.85779 | 139.98848 | 5250 ft | 274 kts | 195° |
| 2026-05-04 12:10 | 35.83911 | 139.98430 | 5137 ft | 270 kts | 195° |
| 2026-05-04 12:10 | 35.82117 | 139.98031 | 5023 ft | 255 kts | 195° |
| 2026-05-04 12:11 | 35.80391 | 139.97628 | 4911 ft | 250 kts | 201° |
| 2026-05-04 12:11 | 35.78853 | 139.96770 | 4876 ft | 240 kts | 218° |
| 2026-05-04 12:11 | 35.77462 | 139.95569 | 4804 ft | 248 kts | 220° |
| 2026-05-04 12:11 | 35.76051 | 139.94346 | 4475 ft | 244 kts | 220° |
| 2026-05-04 12:12 | 35.74698 | 139.93180 | 4169 ft | 231 kts | 219° |
| 2026-05-04 12:12 | 35.73415 | 139.92073 | 3880 ft | 220 kts | 219° |
| 2026-05-04 12:12 | 35.72198 | 139.91022 | 3601 ft | 209 kts | 220° |
| 2026-05-04 12:12 | 35.71038 | 139.90021 | 3326 ft | 198 kts | 221° |
| 2026-05-04 12:13 | 35.69933 | 139.89068 | 3074 ft | 190 kts | 220° |
| 2026-05-04 12:14 | 35.63418 | 139.83451 | 1578 ft | 141 kts | 220° |
| 2026-05-04 12:15 | 35.62615 | 139.82760 | 1380 ft | 140 kts | 219° |
| 2026-05-04 12:15 | 35.61815 | 139.82071 | 1199 ft | 140 kts | 219° |
| 2026-05-04 12:15 | 35.61021 | 139.81388 | 1010 ft | 139 kts | 220° |
| 2026-05-04 12:15 | 35.60228 | 139.80706 | 836 ft | 139 kts | 219° |
| 2026-05-04 12:16 | 35.59433 | 139.80023 | 721 ft | 138 kts | 218° |
| 2026-05-04 12:16 | 35.58627 | 139.79360 | 544 ft | 137 kts | 216° |
| 2026-05-04 12:16 | 35.57842 | 139.78679 | 367 ft | 143 kts | 217° |
| 2026-05-04 12:16 | 35.57037 | 139.77971 | 166 ft | 140 kts | 218° |
| 2026-05-04 12:17 | 35.56269 | 139.77290 | 41 ft | 131 kts | 212° |
| 2026-05-04 12:17 | 35.55615 | 139.76731 | 26 ft | 91 kts | 214° |
| 2026-05-04 12:17 | 35.55342 | 139.76510 | 28 ft | 21 kts | 203° |
| 2026-05-04 12:17 | 35.55207 | 139.76466 | 26 ft | 19 kts | 191° |
| 2026-05-04 12:18 | 35.55098 | 139.76459 | 23 ft | 15 kts | 155° |
| 2026-05-04 12:18 | 35.55080 | 139.76558 | 25 ft | 12 kts | 62° |
| 2026-05-04 12:18 | 35.55119 | 139.76650 | 23 ft | 12 kts | 63° |
| 2026-05-04 12:18 | 35.55158 | 139.76733 | 24 ft | 11 kts | 57° |
| 2026-05-04 12:19 | 35.55199 | 139.76811 | 23 ft | 11 kts | 57° |
| 2026-05-04 12:19 | 35.55239 | 139.76888 | 23 ft | 11 kts | 59° |
| 2026-05-04 12:19 | 35.55275 | 139.76964 | 24 ft | 10 kts | 59° |
| 2026-05-04 12:19 | 35.55302 | 139.77021 | 24 ft | 5 kts | 60° |
| 2026-05-04 12:20 | 35.55304 | 139.77026 | 24 ft | 0 kts | 60° |
| 2026-05-04 12:20 | 35.55308 | 139.77036 | 23 ft | 0 kts | 60° |
| 2026-05-04 12:21 | 35.55323 | 139.77068 | 23 ft | 11 kts | 60° |
| 2026-05-04 12:21 | 35.55373 | 139.77094 | 24 ft | 7 kts | 335° |
| 2026-05-04 12:21 | 35.55413 | 139.77066 | 25 ft | 6 kts | 330° |
| 2026-05-04 12:22 | 35.55444 | 139.77044 | 24 ft | 5 kts | 330° |
| 2026-05-04 12:22 | 35.55481 | 139.77018 | 23 ft | 10 kts | 330° |
| 2026-05-04 12:22 | 35.55529 | 139.76984 | 25 ft | 6 kts | 330° |
| 2026-05-04 12:22 | 35.55565 | 139.76974 | 24 ft | 5 kts | 13° |
| 2026-05-04 12:23 | 35.55608 | 139.76999 | 23 ft | 11 kts | 37° |
| 2026-05-04 12:23 | 35.55668 | 139.77056 | 24 ft | 10 kts | 37° |
| 2026-05-04 12:23 | 35.55717 | 139.77099 | 26 ft | 9 kts | 33° |
| 2026-05-04 12:23 | 35.55805 | 139.77170 | 23 ft | 17 kts | 33° |
| 2026-05-04 12:24 | 35.55883 | 139.77234 | 23 ft | 10 kts | 33° |
| 2026-05-04 12:24 | 35.55933 | 139.77300 | 23 ft | 14 kts | 57° |
| 2026-05-04 12:24 | 35.55986 | 139.77413 | 23 ft | 14 kts | 62° |
| 2026-05-04 12:24 | 35.56031 | 139.77512 | 26 ft | 13 kts | 59° |
| 2026-05-04 12:25 | 35.56076 | 139.77604 | 23 ft | 12 kts | 59° |
| 2026-05-04 12:25 | 35.56118 | 139.77692 | 23 ft | 12 kts | 60° |
| 2026-05-04 12:25 | 35.56158 | 139.77776 | 23 ft | 11 kts | 59° |
| 2026-05-04 12:25 | 35.56196 | 139.77856 | 24 ft | 11 kts | 59° |
| 2026-05-04 12:26 | 35.56233 | 139.77933 | 25 ft | 10 kts | 59° |
| 2026-05-04 12:26 | 35.56275 | 139.78022 | 23 ft | 17 kts | 60° |
| 2026-05-04 12:26 | 35.56329 | 139.78134 | 23 ft | 11 kts | 59° |
| 2026-05-04 12:26 | 35.56368 | 139.78219 | 23 ft | 14 kts | 59° |
| 2026-05-04 12:27 | 35.56419 | 139.78326 | 23 ft | 13 kts | 66° |
| 2026-05-04 12:27 | 35.56390 | 139.78412 | 23 ft | 13 kts | 144° |
| 2026-05-04 12:27 | 35.56294 | 139.78481 | 26 ft | 16 kts | 149° |
| 2026-05-04 12:27 | 35.56197 | 139.78550 | 23 ft | 16 kts | 150° |
| 2026-05-04 12:28 | 35.56103 | 139.78617 | 24 ft | 15 kts | 150° |
| 2026-05-04 12:28 | 35.56011 | 139.78682 | 24 ft | 15 kts | 149° |
| 2026-05-04 12:28 | 35.55923 | 139.78744 | 24 ft | 14 kts | 150° |
| 2026-05-04 12:28 | 35.55838 | 139.78805 | 24 ft | 14 kts | 150° |
| 2026-05-04 12:29 | 35.55758 | 139.78861 | 25 ft | 11 kts | 152° |
| 2026-05-04 12:29 | 35.55696 | 139.78840 | 24 ft | 9 kts | 227° |
| 2026-05-04 12:29 | 35.55645 | 139.78833 | 26 ft | 8 kts | 155° |
| 2026-05-04 12:29 | 35.55610 | 139.78856 | 24 ft | 2 kts | 149° |
| 2026-05-04 12:30 | 35.55609 | 139.78857 | 24 ft | 0 kts | 149° |